sensor_id;sensor_type;location;lat;lon;timestamp;P1;durP1;ratioP1;P2;durP2;ratioP2
66609;SDS011;53468;48.276;14.416;2022-09-27T00:03:45;7.35;;;5.10;;
66609;SDS011;53468;48.276;14.416;2022-09-27T00:09:21;9.13;;;6.30;;
66609;SDS011;53468;48.276;14.416;2022-09-27T00:14:56;7.25;;;4.90;;
66609;SDS011;53468;48.276;14.416;2022-09-27T00:20:34;10.50;;;5.30;;
66609;SDS011;53468;48.276;14.416;2022-09-27T00:26:28;8.82;;;5.28;;
66609;SDS011;53468;48.276;14.416;2022-09-27T00:32:13;6.43;;;4.80;;
66609;SDS011;53468;48.276;14.416;2022-09-27T00:38:08;7.63;;;5.45;;
66609;SDS011;53468;48.276;14.416;2022-09-27T00:50:33;8.52;;;5.57;;
66609;SDS011;53468;48.276;14.416;2022-09-27T01:02:30;9.65;;;6.35;;
66609;SDS011;53468;48.276;14.416;2022-09-27T01:08:19;9.55;;;6.78;;
66609;SDS011;53468;48.276;14.416;2022-09-27T01:20:32;8.00;;;5.60;;
66609;SDS011;53468;48.276;14.416;2022-09-27T01:26:33;6.88;;;5.28;;
66609;SDS011;53468;48.276;14.416;2022-09-27T01:39:16;10.90;;;6.00;;
66609;SDS011;53468;48.276;14.416;2022-09-27T01:45:12;14.88;;;6.93;;
66609;SDS011;53468;48.276;14.416;2022-09-27T02:09:39;11.80;;;7.65;;
66609;SDS011;53468;48.276;14.416;2022-09-27T02:15:48;7.68;;;6.25;;
66609;SDS011;53468;48.276;14.416;2022-09-27T02:21:46;10.10;;;6.90;;
66609;SDS011;53468;48.276;14.416;2022-09-27T03:12:31;10.52;;;6.75;;
66609;SDS011;53468;48.276;14.416;2022-09-27T03:18:14;10.60;;;7.38;;
66609;SDS011;53468;48.276;14.416;2022-09-27T03:24:09;10.20;;;6.43;;
66609;SDS011;53468;48.276;14.416;2022-09-27T03:42:46;9.50;;;6.53;;
66609;SDS011;53468;48.276;14.416;2022-09-27T03:48:36;14.02;;;6.78;;
66609;SDS011;53468;48.276;14.416;2022-09-27T04:25:46;9.80;;;6.53;;
66609;SDS011;53468;48.276;14.416;2022-09-27T04:31:38;8.73;;;6.43;;
66609;SDS011;53468;48.276;14.416;2022-09-27T04:37:28;9.25;;;5.93;;
66609;SDS011;53468;48.276;14.416;2022-09-27T05:02:14;14.10;;;6.97;;
66609;SDS011;53468;48.276;14.416;2022-09-27T05:08:36;12.35;;;7.63;;
66609;SDS011;53468;48.276;14.416;2022-09-27T05:14:55;10.90;;;7.45;;
66609;SDS011;53468;48.276;14.416;2022-09-27T07:21:28;11.70;;;6.93;;
66609;SDS011;53468;48.276;14.416;2022-09-27T07:27:36;12.35;;;8.00;;
66609;SDS011;53468;48.276;14.416;2022-09-27T07:33:50;12.18;;;7.65;;
66609;SDS011;53468;48.276;14.416;2022-09-27T07:39:59;13.30;;;9.23;;
66609;SDS011;53468;48.276;14.416;2022-09-27T07:45:48;15.23;;;9.47;;
66609;SDS011;53468;48.276;14.416;2022-09-27T09:18:56;3.35;;;1.85;;
66609;SDS011;53468;48.276;14.416;2022-09-27T09:24:52;4.68;;;2.22;;
66609;SDS011;53468;48.276;14.416;2022-09-27T09:30:40;3.83;;;2.28;;
66609;SDS011;53468;48.276;14.416;2022-09-27T09:36:29;4.43;;;2.22;;
66609;SDS011;53468;48.276;14.416;2022-09-27T09:42:09;3.40;;;2.22;;
66609;SDS011;53468;48.276;14.416;2022-09-27T09:48:08;3.95;;;2.13;;
66609;SDS011;53468;48.276;14.416;2022-09-27T09:54:03;6.30;;;1.90;;
66609;SDS011;53468;48.276;14.416;2022-09-27T09:59:55;3.45;;;1.63;;
66609;SDS011;53468;48.276;14.416;2022-09-27T10:05:36;2.80;;;1.30;;
66609;SDS011;53468;48.276;14.416;2022-09-27T10:11:20;3.90;;;1.35;;
66609;SDS011;53468;48.276;14.416;2022-09-27T10:16:57;2.47;;;1.30;;
66609;SDS011;53468;48.276;14.416;2022-09-27T10:22:37;2.90;;;1.30;;
66609;SDS011;53468;48.276;14.416;2022-09-27T10:28:37;2.78;;;0.85;;
66609;SDS011;53468;48.276;14.416;2022-09-27T10:34:19;1.20;;;0.80;;
66609;SDS011;53468;48.276;14.416;2022-09-27T10:40:00;1.40;;;0.70;;
66609;SDS011;53468;48.276;14.416;2022-09-27T10:45:52;1.10;;;0.65;;
66609;SDS011;53468;48.276;14.416;2022-09-27T10:51:38;4.60;;;1.00;;
66609;SDS011;53468;48.276;14.416;2022-09-27T10:57:15;3.45;;;0.90;;
66609;SDS011;53468;48.276;14.416;2022-09-27T11:02:56;2.53;;;0.88;;
66609;SDS011;53468;48.276;14.416;2022-09-27T11:08:31;5.40;;;1.20;;
66609;SDS011;53468;48.276;14.416;2022-09-27T11:14:17;2.45;;;1.00;;
66609;SDS011;53468;48.276;14.416;2022-09-27T11:20:04;1.35;;;0.75;;
66609;SDS011;53468;48.276;14.416;2022-09-27T11:25:58;3.63;;;1.08;;
66609;SDS011;53468;48.276;14.416;2022-09-27T11:31:57;2.65;;;0.80;;
66609;SDS011;53468;48.276;14.416;2022-09-27T11:37:49;1.80;;;0.80;;
66609;SDS011;53468;48.276;14.416;2022-09-27T11:43:37;3.38;;;1.20;;
66609;SDS011;53468;48.276;14.416;2022-09-27T11:49:27;2.67;;;1.13;;
66609;SDS011;53468;48.276;14.416;2022-09-27T11:55:29;3.80;;;1.30;;
66609;SDS011;53468;48.276;14.416;2022-09-27T12:01:16;1.60;;;0.50;;
66609;SDS011;53468;48.276;14.416;2022-09-27T12:06:59;0.22;;;0.20;;
66609;SDS011;53468;48.276;14.416;2022-09-27T12:12:43;0.82;;;0.47;;
66609;SDS011;53468;48.276;14.416;2022-09-27T12:18:22;0.52;;;0.38;;
66609;SDS011;53468;48.276;14.416;2022-09-27T12:24:04;1.85;;;0.30;;
66609;SDS011;53468;48.276;14.416;2022-09-27T12:29:43;0.70;;;0.30;;
66609;SDS011;53468;48.276;14.416;2022-09-27T12:35:20;0.47;;;0.30;;
66609;SDS011;53468;48.276;14.416;2022-09-27T12:41:00;0.65;;;0.30;;
66609;SDS011;53468;48.276;14.416;2022-09-27T12:46:42;3.20;;;0.35;;
66609;SDS011;53468;48.276;14.416;2022-09-27T12:52:24;1.60;;;0.70;;
66609;SDS011;53468;48.276;14.416;2022-09-27T12:58:09;0.75;;;0.50;;
66609;SDS011;53468;48.276;14.416;2022-09-27T13:10:39;2.47;;;0.50;;
66609;SDS011;53468;48.276;14.416;2022-09-27T13:16:20;1.50;;;0.70;;
66609;SDS011;53468;48.276;14.416;2022-09-27T13:28:32;1.45;;;0.38;;
66609;SDS011;53468;48.276;14.416;2022-09-27T13:34:12;1.38;;;0.40;;
66609;SDS011;53468;48.276;14.416;2022-09-27T13:40:16;0.50;;;0.40;;
66609;SDS011;53468;48.276;14.416;2022-09-27T13:45:56;2.10;;;0.32;;
66609;SDS011;53468;48.276;14.416;2022-09-27T13:51:33;2.95;;;0.55;;
66609;SDS011;53468;48.276;14.416;2022-09-27T14:03:19;0.75;;;0.30;;
66609;SDS011;53468;48.276;14.416;2022-09-27T14:09:13;0.93;;;0.45;;
66609;SDS011;53468;48.276;14.416;2022-09-27T14:14:51;1.70;;;0.60;;
66609;SDS011;53468;48.276;14.416;2022-09-27T14:20:41;1.55;;;0.30;;
66609;SDS011;53468;48.276;14.416;2022-09-27T14:26:22;0.88;;;0.30;;
66609;SDS011;53468;48.276;14.416;2022-09-27T14:32:02;0.98;;;0.30;;
66609;SDS011;53468;48.276;14.416;2022-09-27T14:37:41;3.22;;;0.30;;
66609;SDS011;53468;48.276;14.416;2022-09-27T14:43:27;1.75;;;0.50;;
66609;SDS011;53468;48.276;14.416;2022-09-27T14:49:18;0.65;;;0.32;;
66609;SDS011;53468;48.276;14.416;2022-09-27T15:01:29;1.77;;;0.60;;
66609;SDS011;53468;48.276;14.416;2022-09-27T15:07:25;1.50;;;0.60;;
66609;SDS011;53468;48.276;14.416;2022-09-27T15:13:16;2.00;;;0.90;;
66609;SDS011;53468;48.276;14.416;2022-09-27T15:18:58;0.85;;;0.45;;
66609;SDS011;53468;48.276;14.416;2022-09-27T15:24:38;2.92;;;1.50;;
66609;SDS011;53468;48.276;14.416;2022-09-27T17:51:52;2.67;;;1.40;;
